PWSweather.com
Personal Weather Stations
Station Observations

OlomoucCZ

Lat: 49.5936202181, Lon: 17.2276005149

Elevation: 752

Station Type: Davis Vantage Pro 2 Activ

http://infopocasi-olomouc.cz

High Low Average
Temperature 27.8°F-2.3°C 21.8°F-5.7°C 24.6°F-4.1°C
Dew Point 22.9°F-5.1°C 18.8°F-7.3°C 21.1°F-6.1°C
Winds 10.4 mph 16.7 kmh Calm Calm 4.0 mph W6.4 kmh W
Wind Gusts 13.8 mph22.2 kmh 2.3 mph3.7 kmh 6.0 mph9.7 kmh
Humidity 93% 78% 86%
Pressure 29.96 in1014.6 mb 29.83 in1010.2 mb -
Precipitation 0.02 in0.5 mm - -
Hour Temp Dew Point Humidity Winds Wind Gusts Pressure Precip Precip Rate Daily Precip Total
12:00 AM 24.2°F-4.3°C 19.8°F-6.8°C 83% 5.8 mph NW9.3 kmh NW 10.4 mph16.7 kmh 29.84 in1010.5 mb - 0.00 in0.0 mm 0.00 in0.0 mm
12:30 AM 24.1°F-4.4°C 19.7°F-6.8°C 83% 3.5 mph NNW5.6 kmh NNW 4.6 mph7.4 kmh 29.84 in1010.5 mb - 0.00 in0.0 mm 0.00 in0.0 mm
01:00 AM 24.3°F-4.3°C 19.6°F-6.9°C 82% 5.8 mph NW9.3 kmh NW 6.9 mph11.1 kmh 29.84 in1010.5 mb - 0.00 in0.0 mm 0.00 in0.0 mm
01:30 AM 24.4°F-4.2°C 20.0°F-6.7°C 83% 2.3 mph WNW3.7 kmh WNW 3.5 mph5.6 kmh 29.83 in1010.2 mb - 0.00 in0.0 mm 0.00 in0.0 mm
02:00 AM 24.4°F-4.2°C 19.7°F-6.8°C 82% 5.8 mph NW9.3 kmh NW 8.1 mph13.0 kmh 29.84 in1010.5 mb - 0.00 in0.0 mm 0.00 in0.0 mm
02:30 AM 23.9°F-4.5°C 19.8°F-6.8°C 84% 4.6 mph NW7.4 kmh NW 4.6 mph7.4 kmh 29.84 in1010.5 mb - 0.00 in0.0 mm 0.00 in0.0 mm
03:00 AM 23.3°F-4.8°C 20.5°F-6.4°C 89% 2.3 mph WNW3.7 kmh WNW 3.5 mph5.6 kmh 29.83 in1010.2 mb - 0.00 in0.0 mm 0.00 in0.0 mm
03:30 AM 23.1°F-4.9°C 21.1°F-6.1°C 92% 2.3 mph W3.7 kmh W 2.3 mph3.7 kmh 29.83 in1010.2 mb - 0.00 in0.0 mm 0.00 in0.0 mm
04:00 AM 23.0°F-5.0°C 21.3°F-5.9°C 93% 1.2 mph WNW1.9 kmh WNW 2.3 mph3.7 kmh 29.83 in1010.2 mb - 0.00 in0.0 mm 0.00 in0.0 mm
04:30 AM 23.0°F-5.0°C 21.3°F-5.9°C 93% 1.2 mph WNW1.9 kmh WNW 2.3 mph3.7 kmh 29.84 in1010.5 mb - 0.00 in0.0 mm 0.00 in0.0 mm
05:00 AM 23.0°F-5.0°C 21.3°F-5.9°C 93% 1.2 mph W1.9 kmh W 2.3 mph3.7 kmh 29.84 in1010.5 mb - 0.00 in0.0 mm 0.00 in0.0 mm
05:30 AM 23.1°F-4.9°C 21.4°F-5.9°C 93% 1.2 mph W1.9 kmh W 2.3 mph3.7 kmh 29.84 in1010.5 mb - 0.00 in0.0 mm 0.00 in0.0 mm
06:00 AM 23.2°F-4.9°C 21.5°F-5.8°C 93% 3.5 mph NW5.6 kmh NW 3.5 mph5.6 kmh 29.85 in1010.8 mb - 0.00 in0.0 mm 0.00 in0.0 mm
06:30 AM 23.1°F-4.9°C 21.4°F-5.9°C 93% 4.6 mph NW7.4 kmh NW 4.6 mph7.4 kmh 29.85 in1010.8 mb - 0.00 in0.0 mm 0.00 in0.0 mm
07:00 AM 23.2°F-4.9°C 21.5°F-5.8°C 93% 3.5 mph NW5.6 kmh NW 4.6 mph7.4 kmh 29.86 in1011.2 mb - 0.00 in0.0 mm 0.00 in0.0 mm
07:30 AM 23.1°F-4.9°C 21.1°F-6.1°C 92% 3.5 mph NW5.6 kmh NW 3.5 mph5.6 kmh 29.87 in1011.5 mb - 0.00 in0.0 mm 0.00 in0.0 mm
08:00 AM 22.9°F-5.1°C 20.9°F-6.2°C 92% 2.3 mph WNW3.7 kmh WNW 2.3 mph3.7 kmh 29.88 in1011.9 mb - 0.00 in0.0 mm 0.00 in0.0 mm
08:30 AM 23.2°F-4.9°C 21.2°F-6.0°C 92% 2.3 mph NW3.7 kmh NW 3.5 mph5.6 kmh 29.89 in1012.2 mb - 0.00 in0.0 mm 0.00 in0.0 mm
09:00 AM 23.6°F-4.7°C 21.4°F-5.9°C 91% 2.3 mph NW3.7 kmh NW 3.5 mph5.6 kmh 29.89 in1012.2 mb - 0.02 in0.5 mm 0.02 in0.5 mm
09:30 AM 24.2°F-4.3°C 22.0°F-5.6°C 91% 4.6 mph NW7.4 kmh NW 6.9 mph11.1 kmh 29.90 in1012.5 mb - 0.02 in0.5 mm 0.02 in0.5 mm
10:00 AM 24.8°F-4.0°C 22.1°F-5.5°C 89% 4.6 mph NW7.4 kmh NW 8.1 mph13.0 kmh 29.90 in1012.5 mb - 0.00 in0.0 mm 0.02 in0.5 mm
10:30 AM 25.5°F-3.6°C 22.4°F-5.3°C 88% 5.8 mph WNW9.3 kmh WNW 10.4 mph16.7 kmh 29.91 in1012.9 mb - 0.00 in0.0 mm 0.02 in0.5 mm
11:00 AM 25.9°F-3.4°C 22.3°F-5.4°C 86% 4.6 mph WNW7.4 kmh WNW 6.9 mph11.1 kmh 29.91 in1012.9 mb - 0.00 in0.0 mm 0.02 in0.5 mm
11:30 AM 26.4°F-3.1°C 21.9°F-5.6°C 83% 8.1 mph WNW13.0 kmh WNW 11.5 mph18.5 kmh 29.91 in1012.9 mb - 0.00 in0.0 mm 0.02 in0.5 mm
12:00 PM 26.7°F-2.9°C 22.2°F-5.4°C 83% 9.2 mph WNW14.8 kmh WNW 11.5 mph18.5 kmh 29.90 in1012.5 mb - 0.00 in0.0 mm 0.02 in0.5 mm
12:30 PM 27.2°F-2.7°C 22.1°F-5.5°C 81% 10.4 mph W16.7 kmh W 11.5 mph18.5 kmh 29.90 in1012.5 mb - 0.00 in0.0 mm 0.02 in0.5 mm
01:00 PM 27.3°F-2.6°C 21.4°F-5.9°C 78% 8.1 mph NW13.0 kmh NW 13.8 mph22.2 kmh 29.91 in1012.9 mb - 0.00 in0.0 mm 0.02 in0.5 mm
01:30 PM 27.3°F-2.6°C 21.6°F-5.8°C 79% 8.1 mph NW13.0 kmh NW 11.5 mph18.5 kmh 29.91 in1012.9 mb - 0.00 in0.0 mm 0.02 in0.5 mm
02:00 PM 27.8°F-2.3°C 22.1°F-5.5°C 79% 6.9 mph W11.1 kmh W 9.2 mph14.8 kmh 29.91 in1012.9 mb - 0.00 in0.0 mm 0.02 in0.5 mm
02:30 PM 27.6°F-2.4°C 22.5°F-5.3°C 81% 2.3 mph WSW3.7 kmh WSW 5.8 mph9.3 kmh 29.92 in1013.2 mb - 0.00 in0.0 mm 0.02 in0.5 mm
03:00 PM 27.7°F-2.4°C 22.9°F-5.1°C 82% 5.8 mph W9.3 kmh W 10.4 mph16.7 kmh 29.93 in1013.5 mb - 0.00 in0.0 mm 0.02 in0.5 mm
03:30 PM 27.4°F-2.6°C 22.6°F-5.2°C 82% 6.9 mph WNW11.1 kmh WNW 9.2 mph14.8 kmh 29.94 in1013.9 mb - 0.00 in0.0 mm 0.02 in0.5 mm
04:00 PM 27.1°F-2.7°C 22.3°F-5.4°C 82% 10.4 mph W16.7 kmh W 11.5 mph18.5 kmh 29.94 in1013.9 mb - 0.00 in0.0 mm 0.02 in0.5 mm
04:30 PM 26.6°F-3.0°C 22.1°F-5.5°C 83% 4.6 mph W7.4 kmh W 4.6 mph7.4 kmh 29.95 in1014.2 mb - 0.00 in0.0 mm 0.02 in0.5 mm
05:00 PM 26.5°F-3.1°C 22.0°F-5.6°C 83% 5.8 mph W9.3 kmh W 10.4 mph16.7 kmh 29.94 in1013.9 mb - 0.00 in0.0 mm 0.02 in0.5 mm
05:30 PM 26.5°F-3.1°C 22.0°F-5.6°C 83% 5.8 mph NW9.3 kmh NW 8.1 mph13.0 kmh 29.94 in1013.9 mb - 0.00 in0.0 mm 0.02 in0.5 mm
06:00 PM 25.6°F-3.6°C 21.4°F-5.9°C 84% 4.6 mph W7.4 kmh W 8.1 mph13.0 kmh 29.95 in1014.2 mb - 0.00 in0.0 mm 0.02 in0.5 mm
06:30 PM 24.9°F-3.9°C 21.0°F-6.1°C 85% 5.8 mph W9.3 kmh W 6.9 mph11.1 kmh 29.95 in1014.2 mb - 0.00 in0.0 mm 0.02 in0.5 mm
07:00 PM 24.3°F-4.3°C 20.4°F-6.4°C 85% 3.5 mph W5.6 kmh W 6.9 mph11.1 kmh 29.95 in1014.2 mb - 0.00 in0.0 mm 0.02 in0.5 mm
07:30 PM 23.7°F-4.6°C 20.1°F-6.6°C 86% 4.6 mph W7.4 kmh W 6.9 mph11.1 kmh 29.96 in1014.6 mb - 0.00 in0.0 mm 0.02 in0.5 mm
08:00 PM 24.3°F-4.3°C 20.7°F-6.3°C 86% 3.5 mph WNW5.6 kmh WNW 3.5 mph5.6 kmh 29.96 in1014.6 mb - 0.00 in0.0 mm 0.02 in0.5 mm
08:30 PM 24.2°F-4.3°C 20.6°F-6.3°C 86% 2.3 mph W3.7 kmh W 3.5 mph5.6 kmh 29.96 in1014.6 mb - 0.00 in0.0 mm 0.02 in0.5 mm
09:00 PM 23.0°F-5.0°C 19.7°F-6.8°C 87% 2.3 mph S3.7 kmh S 4.6 mph7.4 kmh 29.96 in1014.6 mb - 0.00 in0.0 mm 0.02 in0.5 mm
09:30 PM 21.9°F-5.6°C 18.9°F-7.3°C 88% 2.3 mph S3.7 kmh S 4.6 mph7.4 kmh 29.96 in1014.6 mb - 0.00 in0.0 mm 0.02 in0.5 mm
10:00 PM 21.8°F-5.7°C 18.8°F-7.3°C 88% 2.3 mph SW3.7 kmh SW 4.6 mph7.4 kmh 29.96 in1014.6 mb - 0.00 in0.0 mm 0.02 in0.5 mm
10:30 PM 23.2°F-4.9°C 19.9°F-6.7°C 87% 3.5 mph SSW5.6 kmh SSW 4.6 mph7.4 kmh 29.95 in1014.2 mb - 0.00 in0.0 mm 0.02 in0.5 mm
11:00 PM 23.8°F-4.6°C 20.2°F-6.6°C 86% 3.5 mph SW5.6 kmh SW 3.5 mph5.6 kmh 29.95 in1014.2 mb - 0.00 in0.0 mm 0.02 in0.5 mm
11:30 PM 23.9°F-4.5°C 20.6°F-6.3°C 87% Calm Calm 2.3 mph3.7 kmh 29.95 in1014.2 mb - 0.00 in0.0 mm 0.02 in0.5 mm